Time;durP1;ratioP1;P1;durP2;ratioP2;P2;SDS_P1;SDS_P2;PMS_P1;PMS_P2;Temp;Humidity;BMP_temperature;BMP_pressure;BME280_temperature;BME280_humidity;BME280_pressure;Samples;Min_cycle;Max_cycle;Signal;HPM_P1;HPM_P2
2023/10/18 00:00:28;;;;;;;27.92;18.33;;;5.20;99.90;;;;;;5029838;28;20125;-83
2023/10/18 00:02:54;;;;;;;26.60;17.42;;;5.20;99.90;;;;;;5032532;28;20506;-82
2023/10/18 00:05:24;;;;;;;30.30;18.75;;;5.20;99.90;;;;;;5028615;28;20107;-83
2023/10/18 00:07:51;;;;;;;29.90;18.40;;;5.20;99.90;;;;;;5031530;28;20117;-83
2023/10/18 00:10:17;;;;;;;28.95;18.65;;;5.20;99.90;;;;;;5017483;28;20033;-83
2023/10/18 00:12:44;;;;;;;29.58;18.67;;;5.20;99.90;;;;;;5036264;28;20109;-83
2023/10/18 00:15:11;;;;;;;28.25;16.15;;;5.20;99.90;;;;;;5014832;28;20490;-83
2023/10/18 00:17:37;;;;;;;25.92;16.17;;;5.20;99.90;;;;;;5035762;28;20073;-83
2023/10/18 00:20:13;;;;;;;33.08;19.27;;;5.10;99.90;;;;;;5014473;28;20522;-84
2023/10/18 00:22:42;;;;;;;29.30;17.90;;;5.00;99.90;;;;;;5013327;28;20519;-83
2023/10/18 00:25:10;;;;;;;29.65;17.38;;;5.00;99.90;;;;;;5030012;28;20042;-84
2023/10/18 00:27:37;;;;;;;31.10;18.95;;;5.00;99.90;;;;;;5013426;28;20045;-84
2023/10/18 00:30:12;;;;;;;33.60;18.73;;;5.00;99.90;;;;;;5028657;28;20557;-83
2023/10/18 00:32:39;;;;;;;31.65;18.10;;;5.00;99.90;;;;;;5028971;28;20041;-83
2023/10/18 00:35:22;;;;;;;29.52;18.58;;;4.90;99.90;;;;;;5012302;28;20476;-83
2023/10/18 00:37:49;;;;;;;30.15;19.08;;;4.90;99.90;;;;;;5013366;28;20060;-82
2023/10/18 00:42:53;;;;;;;30.67;19.55;;;4.90;99.90;;;;;;5027121;28;20043;-83
2023/10/18 00:45:21;;;;;;;33.42;20.85;;;4.90;99.90;;;;;;5030550;28;20030;-83
2023/10/18 00:47:48;;;;;;;34.90;20.35;;;4.90;99.90;;;;;;5032367;28;20104;-83
2023/10/18 00:50:14;;;;;;;35.10;20.58;;;4.90;99.90;;;;;;5020668;28;20045;-84
2023/10/18 00:52:40;;;;;;;31.42;19.98;;;4.90;99.90;;;;;;5016966;28;20088;-84
2023/10/18 00:55:09;;;;;;;35.70;20.92;;;4.90;99.90;;;;;;5018024;28;20094;-83
2023/10/18 00:57:35;;;;;;;32.92;20.17;;;4.90;99.90;;;;;;5020161;28;20042;-83
2023/10/18 01:00:07;;;;;;;35.15;20.90;;;4.90;99.90;;;;;;5039292;28;20044;-83
2023/10/18 01:02:37;;;;;;;39.83;20.75;;;4.90;99.90;;;;;;5020725;28;20037;-83
2023/10/18 01:05:12;;;;;;;44.10;23.70;;;4.90;99.90;;;;;;5037480;28;20037;-83
2023/10/18 01:07:37;;;;;;;45.15;23.90;;;5.00;99.90;;;;;;5036928;28;20044;-84
2023/10/18 01:10:07;;;;;;;40.13;23.20;;;5.00;99.90;;;;;;5038889;28;20041;-84
2023/10/18 01:12:37;;;;;;;36.78;21.98;;;5.00;99.90;;;;;;5040030;28;20720;-84
2023/10/18 01:15:06;;;;;;;40.75;22.90;;;5.00;99.90;;;;;;5018605;28;20087;-84
2023/10/18 01:17:34;;;;;;;38.20;22.45;;;5.00;99.90;;;;;;5034886;28;20052;-84
2023/10/18 01:20:12;;;;;;;33.45;21.65;;;5.00;99.90;;;;;;5017652;28;20061;-83
2023/10/18 01:22:38;;;;;;;38.28;21.38;;;5.00;99.90;;;;;;5017410;28;20048;-84
2023/10/18 01:25:04;;;;;;;35.85;21.40;;;5.00;99.90;;;;;;5033795;28;20116;-83
2023/10/18 01:27:30;;;;;;;41.30;24.80;;;4.90;99.90;;;;;;5034858;28;20041;-83
2023/10/18 01:29:55;;;;;;;38.50;23.40;;;4.90;99.90;;;;;;5018802;28;20083;-84
2023/10/18 01:32:21;;;;;;;41.95;23.42;;;4.90;99.90;;;;;;5032573;28;20037;-81
2023/10/18 01:34:47;;;;;;;42.72;24.00;;;4.90;99.90;;;;;;5031387;28;20045;-84
2023/10/18 01:37:13;;;;;;;41.65;25.85;;;5.00;99.90;;;;;;5030227;28;20473;-84
2023/10/18 01:39:39;;;;;;;42.47;25.25;;;5.00;99.90;;;;;;5016778;28;20064;-84
2023/10/18 01:42:06;;;;;;;42.80;24.77;;;5.00;99.90;;;;;;5032677;28;20029;-84
2023/10/18 01:44:35;;;;;;;46.58;26.23;;;5.00;99.90;;;;;;5036689;28;20045;-84
2023/10/18 01:47:06;;;;;;;51.67;27.33;;;5.00;99.90;;;;;;5014445;28;20046;-84
2023/10/18 01:49:46;;;;;;;39.55;24.38;;;5.10;99.90;;;;;;5031844;28;20049;-84
2023/10/18 01:52:12;;;;;;;42.40;24.63;;;5.10;99.90;;;;;;5016156;28;20079;-82
2023/10/18 01:54:38;;;;;;;40.80;24.30;;;5.10;99.90;;;;;;5016883;28;20038;-83
2023/10/18 01:57:06;;;;;;;40.28;24.58;;;5.00;99.90;;;;;;5038417;28;20068;-84
2023/10/18 01:59:34;;;;;;;40.83;23.85;;;5.00;99.90;;;;;;5017216;28;20045;-84
2023/10/18 02:02:00;;;;;;;43.38;24.98;;;5.00;99.90;;;;;;5026843;28;20030;-83
2023/10/18 02:04:27;;;;;;;45.58;25.88;;;5.00;99.90;;;;;;5029878;28;20034;-83
2023/10/18 02:07:00;;;;;;;48.17;26.67;;;5.10;99.90;;;;;;5021246;28;20037;-84
2023/10/18 02:09:30;;;;;;;39.40;23.00;;;5.10;99.90;;;;;;5036706;28;20053;-84
2023/10/18 02:11:56;;;;;;;41.13;24.08;;;5.10;99.90;;;;;;5030882;28;20072;-84
2023/10/18 02:14:22;;;;;;;42.15;24.90;;;5.10;99.90;;;;;;5036725;28;20045;-83
2023/10/18 02:16:47;;;;;;;42.10;24.85;;;5.20;99.90;;;;;;5035860;28;20052;-84
2023/10/18 02:19:15;;;;;;;42.95;23.35;;;5.10;99.90;;;;;;5035710;28;20041;-83
2023/10/18 02:21:41;;;;;;;49.58;25.70;;;5.10;99.90;;;;;;5034722;28;20095;-84
2023/10/18 02:24:11;;;;;;;43.90;26.98;;;5.10;99.90;;;;;;5033644;28;20060;-83
2023/10/18 02:26:39;;;;;;;44.15;25.20;;;5.10;99.90;;;;;;5017548;28;20464;-84
2023/10/18 02:29:14;;;;;;;45.70;25.98;;;5.10;99.90;;;;;;5035130;28;20044;-84
2023/10/18 02:31:43;;;;;;;42.22;24.45;;;5.20;99.90;;;;;;5018391;28;20051;-83
2023/10/18 02:34:09;;;;;;;46.25;25.60;;;5.10;99.90;;;;;;5017617;28;20041;-84
2023/10/18 02:36:40;;;;;;;45.35;25.65;;;5.20;99.90;;;;;;5017478;28;20048;-83
2023/10/18 02:39:10;;;;;;;41.78;25.27;;;5.10;99.90;;;;;;5012814;28;20377;-83
2023/10/18 02:41:40;;;;;;;45.55;26.10;;;5.20;99.90;;;;;;5032184;28;20416;-83
2023/10/18 02:44:11;;;;;;;38.60;24.27;;;5.10;99.90;;;;;;5032213;28;20030;-83
2023/10/18 02:46:36;;;;;;;47.85;27.25;;;5.10;99.90;;;;;;5034593;28;20471;-83
2023/10/18 02:49:07;;;;;;;45.72;27.52;;;5.10;99.90;;;;;;5016871;28;20069;-83
2023/10/18 02:51:33;;;;;;;41.67;25.20;;;5.20;99.90;;;;;;5033203;28;20140;-83
2023/10/18 02:54:17;;;;;;;44.28;25.85;;;5.10;99.90;;;;;;5016551;28;20026;-83
2023/10/18 02:56:50;;;;;;;42.20;24.13;;;5.20;99.90;;;;;;5015701;28;20045;-84
2023/10/18 02:59:24;;;;;;;42.00;25.40;;;5.10;99.90;;;;;;5016141;28;20045;-83
2023/10/18 03:01:57;;;;;;;43.85;26.33;;;5.10;99.90;;;;;;5016300;28;20487;-83
2023/10/18 03:04:28;;;;;;;42.80;25.05;;;5.10;99.90;;;;;;5033180;28;20041;-83
2023/10/18 03:06:54;;;;;;;42.90;26.08;;;5.10;99.90;;;;;;5033028;28;20048;-83
2023/10/18 03:09:27;;;;;;;43.38;25.35;;;5.10;99.90;;;;;;5032015;28;20044;-82
2023/10/18 03:11:56;;;;;;;44.08;26.13;;;5.10;99.90;;;;;;5031385;28;20041;-83
2023/10/18 03:17:16;;;;;;;47.30;26.63;;;5.20;99.90;;;;;;5032031;28;20057;-83
2023/10/18 03:19:44;;;;;;;41.03;23.85;;;5.20;99.90;;;;;;5030452;28;20050;-83
2023/10/18 03:22:10;;;;;;;41.92;24.73;;;5.20;99.90;;;;;;5031984;28;20063;-83
2023/10/18 03:24:37;;;;;;;39.17;24.23;;;5.20;99.90;;;;;;5029358;28;20136;-84
2023/10/18 03:27:08;;;;;;;44.38;25.42;;;5.20;99.90;;;;;;5031810;28;20221;-84
2023/10/18 03:29:37;;;;;;;39.17;24.67;;;5.10;99.90;;;;;;5014209;28;20032;-84
2023/10/18 03:32:06;;;;;;;41.30;24.35;;;5.10;99.90;;;;;;5014895;28;20068;-83
2023/10/18 03:34:41;;;;;;;37.55;23.15;;;5.10;99.90;;;;;;5030341;28;20041;-84
2023/10/18 03:37:08;;;;;;;40.05;24.02;;;5.10;99.90;;;;;;5014472;28;20495;-83
2023/10/18 03:39:33;;;;;;;41.10;24.88;;;5.10;99.90;;;;;;5030836;28;20412;-84
2023/10/18 03:42:00;;;;;;;43.17;26.00;;;5.10;99.90;;;;;;5019545;28;20033;-84
2023/10/18 03:44:32;;;;;;;41.75;25.05;;;5.10;99.90;;;;;;5030857;28;20456;-84
2023/10/18 03:47:03;;;;;;;40.28;24.92;;;5.10;99.90;;;;;;5018627;28;20073;-82
2023/10/18 03:51:57;;;;;;;40.60;24.65;;;5.10;99.90;;;;;;5029843;28;20048;-84
2023/10/18 03:54:23;;;;;;;37.90;22.88;;;5.10;99.90;;;;;;5012827;28;20038;-84
2023/10/18 03:56:53;;;;;;;38.03;23.20;;;5.10;99.90;;;;;;5012806;28;20448;-83
2023/10/18 03:59:20;;;;;;;38.40;23.52;;;5.10;99.90;;;;;;5030226;28;20163;-83
2023/10/18 04:04:48;;;;;;;37.67;24.23;;;5.00;99.90;;;;;;4993011;28;20089;-84
2023/10/18 04:07:17;;;;;;;37.83;23.92;;;5.00;99.90;;;;;;5023374;28;20069;-83
2023/10/18 04:10:06;;;;;;;42.83;25.48;;;5.00;99.90;;;;;;5030601;28;20049;-84
2023/10/18 04:12:32;;;;;;;42.25;26.27;;;5.00;99.90;;;;;;5015971;28;20152;-83
2023/10/18 04:14:58;;;;;;;39.97;23.15;;;5.00;99.90;;;;;;5034600;28;20033;-84
2023/10/18 04:17:36;;;;;;;38.85;23.52;;;5.00;99.90;;;;;;5029321;28;20091;-83
2023/10/18 04:22:47;;;;;;;37.03;24.25;;;5.00;99.90;;;;;;5030500;28;20107;-83
2023/10/18 04:25:56;;;;;;;35.28;23.73;;;5.00;99.90;;;;;;5014631;28;20041;-84
2023/10/18 04:28:05;;;;;;;37.67;23.08;;;5.00;99.90;;;;;;5033074;28;20499;-83
2023/10/18 04:30:36;;;;;;;40.92;25.17;;;5.00;99.90;;;;;;5024335;28;20046;-83
2023/10/18 04:35:44;;;;;;;37.33;24.02;;;5.00;99.90;;;;;;5031975;28;20041;-83
2023/10/18 04:38:29;;;;;;;39.93;25.33;;;5.00;99.90;;;;;;5028489;28;20045;-84
2023/10/18 04:41:02;;;;;;;39.35;25.67;;;5.00;99.90;;;;;;5035135;28;20093;-83
2023/10/18 04:43:28;;;;;;;38.38;23.50;;;4.90;99.90;;;;;;5046428;28;20033;-83
2023/10/18 04:45:57;;;;;;;35.67;23.55;;;5.00;99.90;;;;;;5050090;28;20037;-84
2023/10/18 04:48:59;;;;;;;33.92;20.90;;;5.00;99.90;;;;;;5040705;28;20119;-84
2023/10/18 04:51:09;;;;;;;35.65;23.90;;;4.90;99.90;;;;;;5038140;28;20099;-83
2023/10/18 04:53:34;;;;;;;40.25;24.80;;;4.90;99.90;;;;;;5037549;28;20037;-84
2023/10/18 04:56:02;;;;;;;32.78;23.67;;;4.90;99.90;;;;;;5021931;28;20348;-84
2023/10/18 04:58:29;;;;;;;40.40;24.58;;;4.90;99.90;;;;;;5036098;28;20053;-84
2023/10/18 05:01:01;;;;;;;39.83;24.90;;;4.90;99.90;;;;;;5019921;28;20042;-83
2023/10/18 05:03:32;;;;;;;38.05;24.98;;;4.90;99.90;;;;;;5036225;28;20033;-84
2023/10/18 05:05:58;;;;;;;33.03;23.38;;;4.80;99.90;;;;;;5014980;28;20051;-84
2023/10/18 05:08:24;;;;;;;35.42;23.75;;;4.80;99.90;;;;;;5035574;28;20506;-84
2023/10/18 05:10:52;;;;;;;38.00;24.73;;;4.80;99.90;;;;;;5019177;28;20164;-83
2023/10/18 05:13:33;;;;;;;33.25;22.70;;;4.80;99.90;;;;;;5019075;28;20041;-84
2023/10/18 05:16:04;;;;;;;34.92;23.25;;;4.80;99.90;;;;;;5035345;28;20112;-84
2023/10/18 05:18:30;;;;;;;39.90;25.38;;;4.80;99.90;;;;;;5034962;28;20052;-83
2023/10/18 05:20:57;;;;;;;37.17;23.35;;;4.80;99.90;;;;;;5034693;28;20029;-83
2023/10/18 05:23:27;;;;;;;37.83;23.52;;;4.80;99.90;;;;;;5018241;28;20037;-84
2023/10/18 05:26:08;;;;;;;33.17;22.27;;;4.80;99.90;;;;;;5031213;28;20049;-84
2023/10/18 05:28:47;;;;;;;34.25;22.40;;;4.80;99.90;;;;;;5018047;28;20061;-84
2023/10/18 05:31:43;;;;;;;33.97;22.80;;;4.80;99.90;;;;;;5032186;28;20120;-84
2023/10/18 05:41:51;;;;;;;34.63;23.80;;;4.70;99.90;;;;;;5035698;28;20120;-84
2023/10/18 05:44:17;;;;;;;37.33;23.63;;;4.80;99.90;;;;;;5032514;28;20048;-84
2023/10/18 05:46:46;;;;;;;32.70;21.70;;;4.80;99.90;;;;;;5033271;28;20136;-84
2023/10/18 05:49:15;;;;;;;33.58;22.88;;;4.70;99.90;;;;;;5032845;28;20052;-84
2023/10/18 05:51:51;;;;;;;35.17;23.45;;;4.80;99.90;;;;;;5022398;28;20049;-83
2023/10/18 05:54:24;;;;;;;37.47;22.77;;;4.70;99.90;;;;;;5036512;28;20483;-83
2023/10/18 05:56:51;;;;;;;36.78;23.08;;;4.80;99.90;;;;;;5038661;28;20041;-82
2023/10/18 06:01:54;;;;;;;35.85;23.05;;;4.80;99.90;;;;;;5036183;28;20053;-78
2023/10/18 06:04:26;;;;;;;37.15;23.83;;;4.80;99.90;;;;;;5029147;28;20033;-82
2023/10/18 06:07:04;;;;;;;33.08;23.00;;;4.80;99.90;;;;;;5018647;28;20061;-80
2023/10/18 06:09:33;;;;;;;34.10;22.85;;;4.80;99.90;;;;;;5030573;28;20076;-86
2023/10/18 06:12:03;;;;;;;36.15;23.60;;;4.80;99.90;;;;;;5033031;28;20037;-85
2023/10/18 06:14:41;;;;;;;33.63;22.48;;;4.80;99.90;;;;;;5038038;28;20130;-85
2023/10/18 06:17:19;;;;;;;36.47;24.30;;;4.80;99.90;;;;;;5014135;28;20098;-84
2023/10/18 06:19:45;;;;;;;33.20;22.08;;;4.80;99.90;;;;;;5031516;28;20063;-84
2023/10/18 06:22:38;;;;;;;33.97;22.75;;;4.80;99.90;;;;;;5030905;28;20060;-81
2023/10/18 06:25:06;;;;;;;33.53;23.20;;;4.90;99.90;;;;;;5034246;28;20102;-84
2023/10/18 06:27:39;;;;;;;31.88;21.58;;;4.90;99.90;;;;;;5032470;28;20553;-83
2023/10/18 06:30:14;;;;;;;34.92;22.88;;;4.90;99.90;;;;;;5016477;28;20030;-83
2023/10/18 06:32:40;;;;;;;34.42;21.33;;;4.90;99.90;;;;;;5037788;28;20045;-83
2023/10/18 06:35:14;;;;;;;36.45;23.10;;;4.90;99.90;;;;;;5035482;28;20502;-84
2023/10/18 06:37:42;;;;;;;31.95;21.45;;;5.00;99.90;;;;;;5018964;28;20048;-83
2023/10/18 06:40:43;;;;;;;31.73;21.67;;;5.10;99.90;;;;;;5020250;28;20034;-83
2023/10/18 06:43:09;;;;;;;37.30;22.13;;;5.00;99.90;;;;;;5021327;28;20059;-83
2023/10/18 06:45:39;;;;;;;33.30;22.55;;;5.00;99.90;;;;;;5018985;28;20047;-83
2023/10/18 06:48:08;;;;;;;32.55;21.88;;;5.10;99.90;;;;;;5019528;28;20040;-83
2023/10/18 06:50:35;;;;;;;31.38;20.73;;;5.10;99.90;;;;;;5019451;28;20450;-82
2023/10/18 06:53:05;;;;;;;30.17;20.30;;;5.10;99.90;;;;;;5036996;28;20396;-84
2023/10/18 07:00:51;;;;;;;30.73;20.27;;;5.20;99.90;;;;;;5040562;28;20049;-83
2023/10/18 07:03:33;;;;;;;29.13;18.95;;;5.30;99.90;;;;;;5021756;28;20029;-83
2023/10/18 07:06:04;;;;;;;27.60;19.55;;;5.30;99.90;;;;;;5019040;28;20073;-83
2023/10/18 07:08:33;;;;;;;28.63;19.83;;;5.30;99.90;;;;;;5019792;28;20090;-84
2023/10/18 07:11:02;;;;;;;27.77;19.90;;;5.40;99.90;;;;;;5027813;28;20031;-83
2023/10/18 07:13:43;;;;;;;27.70;19.45;;;5.40;99.90;;;;;;5037691;28;20496;-83
2023/10/18 07:16:13;;;;;;;28.52;19.88;;;5.50;99.90;;;;;;5041150;28;20042;-83
2023/10/18 07:18:39;;;;;;;29.33;19.58;;;5.60;99.90;;;;;;5040820;28;20412;-82
2023/10/18 07:21:05;;;;;;;28.75;20.08;;;5.60;99.90;;;;;;5041079;28;20037;-82
2023/10/18 07:23:37;;;;;;;26.08;19.00;;;5.70;99.90;;;;;;5031557;28;20033;-83
2023/10/18 07:26:13;;;;;;;27.73;18.65;;;5.80;99.90;;;;;;5043891;28;20041;-83
2023/10/18 07:28:40;;;;;;;28.40;19.33;;;5.80;99.90;;;;;;5042605;28;20050;-83
2023/10/18 07:31:09;;;;;;;28.60;19.95;;;5.90;99.90;;;;;;5040871;28;20093;-82
2023/10/18 07:33:40;;;;;;;26.67;18.77;;;5.90;99.90;;;;;;5022982;28;20041;-82
2023/10/18 07:36:11;;;;;;;26.33;18.98;;;6.00;99.90;;;;;;5039390;28;20033;-83
2023/10/18 07:38:39;;;;;;;28.48;20.20;;;6.10;99.90;;;;;;5018468;28;20041;-83
2023/10/18 07:41:08;;;;;;;27.70;19.63;;;6.10;99.90;;;;;;5027349;28;20037;-83
2023/10/18 07:43:37;;;;;;;25.50;19.50;;;6.20;99.90;;;;;;5021785;28;20491;-83
2023/10/18 07:46:18;;;;;;;27.00;19.55;;;6.20;99.90;;;;;;5026742;28;20065;-82
2023/10/18 07:48:47;;;;;;;25.85;18.90;;;6.30;99.90;;;;;;5037391;28;20052;-82
2023/10/18 07:51:26;;;;;;;28.75;18.73;;;6.30;99.90;;;;;;5021995;28;20033;-82
2023/10/18 07:53:53;;;;;;;26.98;18.42;;;6.40;99.90;;;;;;5020654;28;20045;-83
2023/10/18 07:56:32;;;;;;;23.98;18.30;;;6.40;99.90;;;;;;5038064;28;20095;-82
2023/10/18 08:01:52;;;;;;;23.33;17.23;;;6.60;99.90;;;;;;5036809;28;20061;-83
2023/10/18 08:04:20;;;;;;;23.23;16.65;;;6.60;99.90;;;;;;5034951;28;20044;-83
2023/10/18 08:06:48;;;;;;;23.20;16.77;;;6.70;99.90;;;;;;5020584;28;20041;-83
2023/10/18 08:09:17;;;;;;;24.42;17.15;;;6.70;99.90;;;;;;5038587;28;20491;-82
2023/10/18 08:11:47;;;;;;;24.52;18.13;;;6.80;99.90;;;;;;5026717;28;20049;-83
2023/10/18 08:14:16;;;;;;;20.63;16.15;;;6.90;99.90;;;;;;5032427;28;20044;-82
2023/10/18 08:16:52;;;;;;;23.00;16.77;;;6.90;99.90;;;;;;5035172;28;20056;-82
2023/10/18 08:19:22;;;;;;;22.65;16.38;;;7.00;99.90;;;;;;5038243;28;20479;-83
2023/10/18 08:22:09;;;;;;;19.42;15.70;;;7.10;99.90;;;;;;5054124;28;20052;-82
2023/10/18 08:24:35;;;;;;;20.40;15.13;;;7.20;99.90;;;;;;5024185;28;20104;-83
2023/10/18 08:27:10;;;;;;;19.10;15.32;;;7.30;99.90;;;;;;5024620;28;20402;-83
2023/10/18 08:29:37;;;;;;;19.52;14.73;;;7.40;99.90;;;;;;5025299;28;20059;-82
2023/10/18 08:32:06;;;;;;;22.02;14.98;;;7.50;99.90;;;;;;5023248;28;20041;-82
2023/10/18 08:34:32;;;;;;;19.08;15.07;;;7.60;99.90;;;;;;5037525;28;20038;-83
2023/10/18 08:37:10;;;;;;;19.65;14.63;;;7.70;99.90;;;;;;5039913;28;20048;-84
2023/10/18 08:39:39;;;;;;;20.98;14.80;;;7.80;99.90;;;;;;5022459;28;20090;-83
2023/10/18 08:42:05;;;;;;;19.67;14.40;;;7.90;99.90;;;;;;5039992;28;20041;-82
2023/10/18 08:44:32;;;;;;;17.13;12.52;;;8.00;99.90;;;;;;5022794;28;20056;-82
2023/10/18 08:47:04;;;;;;;15.48;13.20;;;8.10;99.90;;;;;;5024226;28;20503;-83
2023/10/18 08:49:33;;;;;;;16.20;12.20;;;8.20;99.90;;;;;;5023441;28;20128;-82
2023/10/18 08:52:08;;;;;;;15.13;12.68;;;8.30;99.90;;;;;;5022467;28;20069;-83
2023/10/18 08:54:39;;;;;;;16.20;12.95;;;8.50;99.90;;;;;;5038403;28;20046;-82
2023/10/18 08:57:08;;;;;;;14.93;11.57;;;8.60;99.90;;;;;;5035920;28;20046;-82
2023/10/18 08:59:43;;;;;;;16.27;12.73;;;8.80;99.90;;;;;;5022143;28;20633;-84
2023/10/18 09:02:23;;;;;;;14.07;11.20;;;8.90;99.90;;;;;;5035583;28;20125;-83
2023/10/18 09:04:54;;;;;;;13.70;10.75;;;9.10;99.90;;;;;;5020932;28;20041;-83
2023/10/18 09:07:23;;;;;;;13.45;11.45;;;9.20;99.90;;;;;;5021777;28;20036;-83
2023/10/18 09:09:57;;;;;;;14.75;11.52;;;9.30;99.90;;;;;;5033717;28;20069;-83
2023/10/18 09:12:36;;;;;;;17.33;11.25;;;9.60;99.90;;;;;;5043578;28;20033;-83
2023/10/18 09:15:27;;;;;;;14.93;10.90;;;9.60;99.90;;;;;;5021328;28;20047;-83
2023/10/18 09:17:48;;;;;;;12.75;10.57;;;9.70;99.90;;;;;;5041699;28;20381;-83
2023/10/18 09:20:15;;;;;;;12.85;10.55;;;9.70;99.90;;;;;;5042316;28;20041;-83
2023/10/18 09:22:48;;;;;;;16.05;10.52;;;9.80;99.90;;;;;;5024225;28;20121;-84
2023/10/18 09:25:14;;;;;;;12.95;10.38;;;9.80;99.90;;;;;;5023163;28;20044;-83
2023/10/18 09:27:39;;;;;;;13.75;10.23;;;9.90;99.90;;;;;;5040546;28;20041;-82
2023/10/18 09:30:10;;;;;;;13.57;10.82;;;10.00;99.90;;;;;;5024807;28;20075;-83
2023/10/18 09:32:36;;;;;;;19.38;10.60;;;10.00;99.90;;;;;;5017956;28;20076;-83
2023/10/18 09:35:09;;;;;;;13.52;10.50;;;10.10;99.90;;;;;;5040244;28;20048;-82
2023/10/18 09:37:38;;;;;;;15.52;10.90;;;10.20;99.90;;;;;;5022521;28;20108;-83
2023/10/18 09:40:06;;;;;;;13.02;10.48;;;10.30;99.90;;;;;;5023046;28;20529;-84
2023/10/18 09:42:31;;;;;;;13.60;10.32;;;10.40;99.90;;;;;;5021833;28;20037;-83
2023/10/18 09:44:59;;;;;;;11.50;9.95;;;10.60;99.90;;;;;;5034919;28;20199;-83
2023/10/18 09:47:26;;;;;;;13.40;10.32;;;10.80;99.90;;;;;;5024838;28;20507;-83
2023/10/18 09:49:55;;;;;;;12.90;10.95;;;11.00;99.90;;;;;;5040548;28;20045;-84
2023/10/18 09:52:24;;;;;;;12.60;10.10;;;11.30;99.90;;;;;;5035924;28;20038;-84
2023/10/18 09:54:51;;;;;;;12.63;10.05;;;11.40;99.90;;;;;;5038255;28;20037;-83
2023/10/18 09:57:26;;;;;;;12.85;10.60;;;11.50;99.90;;;;;;5021115;28;20546;-83
2023/10/18 09:59:56;;;;;;;11.63;9.27;;;11.60;99.90;;;;;;5023810;28;20055;-84
2023/10/18 10:02:24;;;;;;;13.57;10.70;;;11.70;99.90;;;;;;5036120;28;20056;-84
2023/10/18 10:04:54;;;;;;;13.10;10.63;;;11.80;99.90;;;;;;5017984;28;20060;-83
2023/10/18 10:10:19;;;;;;;11.93;10.20;;;11.80;99.90;;;;;;5041206;28;20045;-82
2023/10/18 10:12:45;;;;;;;10.95;9.82;;;11.70;99.90;;;;;;5040982;28;20508;-83
2023/10/18 10:15:13;;;;;;;11.88;10.43;;;11.60;99.90;;;;;;5040131;28;20051;-82
2023/10/18 10:17:42;;;;;;;11.90;9.73;;;11.50;99.90;;;;;;5021690;28;20547;-83
2023/10/18 10:20:15;;;;;;;13.18;10.27;;;11.30;99.90;;;;;;5022865;28;20034;-84
2023/10/18 10:22:44;;;;;;;11.65;9.77;;;11.30;99.90;;;;;;5018941;28;20041;-83
2023/10/18 10:25:19;;;;;;;10.25;9.15;;;11.30;99.90;;;;;;5021738;28;20033;-83
2023/10/18 10:27:53;;;;;;;11.52;10.23;;;11.30;99.90;;;;;;5037851;28;20041;-83
2023/10/18 10:32:48;;;;;;;11.10;9.88;;;11.50;99.90;;;;;;5038639;28;20045;-82
2023/10/18 10:35:17;;;;;;;12.93;9.80;;;11.60;99.90;;;;;;5038001;28;20037;-83
2023/10/18 10:37:48;;;;;;;10.88;9.77;;;11.60;99.90;;;;;;5033349;28;20072;-84
2023/10/18 10:43:02;;;;;;;10.05;9.05;;;11.80;99.90;;;;;;5034878;28;20037;-83
2023/10/18 10:45:35;;;;;;;12.68;9.45;;;11.80;99.90;;;;;;5020582;28;20033;-83
2023/10/18 10:51:08;;;;;;;10.80;9.35;;;11.80;99.90;;;;;;5038156;28;20042;-84
2023/10/18 10:53:36;;;;;;;11.27;8.95;;;11.90;99.90;;;;;;5017941;28;20087;-84
2023/10/18 10:56:16;;;;;;;9.88;8.73;;;11.90;99.90;;;;;;5035700;28;20514;-84
2023/10/18 10:58:55;;;;;;;10.93;9.15;;;11.80;99.90;;;;;;5030304;28;20045;-84
2023/10/18 11:07:25;;;;;;;11.82;9.20;;;12.00;99.90;;;;;;5038940;28;20045;-82
2023/10/18 11:10:04;;;;;;;12.48;9.30;;;12.10;99.90;;;;;;5038705;28;20127;-84
2023/10/18 11:12:33;;;;;;;10.27;8.93;;;12.10;99.90;;;;;;5035422;28;20037;-83
2023/10/18 11:15:00;;;;;;;11.57;9.23;;;12.10;99.90;;;;;;5032253;28;20033;-83
2023/10/18 11:17:25;;;;;;;10.93;8.88;;;12.10;99.90;;;;;;5041107;28;20052;-83
2023/10/18 11:19:58;;;;;;;10.57;9.02;;;12.10;99.90;;;;;;5038367;28;20406;-83
2023/10/18 11:22:24;;;;;;;10.82;9.27;;;12.10;99.90;;;;;;5024256;28;20029;-83
2023/10/18 11:24:52;;;;;;;9.68;8.68;;;12.40;99.90;;;;;;5019117;28;20365;-84
2023/10/18 11:27:25;;;;;;;10.40;8.90;;;12.30;99.90;;;;;;5038860;28;20042;-83
2023/10/18 11:29:55;;;;;;;9.57;8.35;;;12.40;99.90;;;;;;5026340;28;20132;-83
2023/10/18 11:32:27;;;;;;;9.43;8.40;;;12.50;99.90;;;;;;5018869;28;20132;-83
2023/10/18 11:35:12;;;;;;;11.25;9.05;;;12.60;99.90;;;;;;5023445;28;20280;-84
2023/10/18 11:37:39;;;;;;;10.35;9.25;;;12.60;99.90;;;;;;5036273;28;20073;-83
2023/10/18 11:40:29;;;;;;;11.10;9.13;;;12.60;99.90;;;;;;5019405;28;20080;-84
2023/10/18 11:42:56;;;;;;;10.13;8.93;;;12.60;99.90;;;;;;5048132;28;20075;-83
2023/10/18 11:45:27;;;;;;;10.38;8.73;;;12.60;99.90;;;;;;5020440;28;20049;-84
2023/10/18 11:47:53;;;;;;;9.68;8.75;;;12.70;99.90;;;;;;5032302;28;20064;-83
2023/10/18 11:50:23;;;;;;;11.30;8.90;;;12.60;99.90;;;;;;5034510;28;20029;-84
2023/10/18 11:52:51;;;;;;;9.63;8.15;;;12.50;99.90;;;;;;5036190;28;20645;-84
2023/10/18 11:55:17;;;;;;;10.73;8.35;;;12.60;99.90;;;;;;5017975;28;20052;-84
2023/10/18 11:57:46;;;;;;;10.02;9.02;;;12.60;99.90;;;;;;5034368;28;20034;-84
2023/10/18 12:02:48;;;;;;;9.55;8.30;;;12.70;99.90;;;;;;5031689;28;20728;-84
2023/10/18 12:05:15;;;;;;;10.35;8.73;;;12.70;99.90;;;;;;5033744;28;20041;-83
2023/10/18 12:07:47;;;;;;;11.40;9.20;;;12.70;99.90;;;;;;5021192;28;20522;-84
2023/10/18 12:10:17;;;;;;;9.68;8.68;;;12.80;99.90;;;;;;5023765;28;20102;-84
2023/10/18 12:12:43;;;;;;;9.73;8.68;;;12.80;99.90;;;;;;5033384;28;20063;-83
2023/10/18 12:15:09;;;;;;;10.07;7.65;;;12.90;99.90;;;;;;5034478;28;20044;-83
2023/10/18 12:17:34;;;;;;;9.45;8.52;;;12.90;99.90;;;;;;5033751;28;20037;-83
2023/10/18 12:20:00;;;;;;;10.63;8.13;;;13.00;99.90;;;;;;5030373;28;20033;-83
2023/10/18 12:22:26;;;;;;;11.10;9.30;;;13.10;99.90;;;;;;5035602;28;20484;-83
2023/10/18 12:24:52;;;;;;;9.07;8.07;;;13.30;99.90;;;;;;5033959;28;20037;-84
2023/10/18 12:27:35;;;;;;;10.63;8.20;;;13.30;99.90;;;;;;5029455;28;20084;-84
2023/10/18 12:30:09;;;;;;;9.40;8.25;;;13.50;99.90;;;;;;5020109;28;20048;-83
2023/10/18 12:32:50;;;;;;;10.85;8.43;;;13.50;99.90;;;;;;5037922;28;20037;-84
2023/10/18 12:35:19;;;;;;;8.85;7.95;;;13.70;99.90;;;;;;5033450;28;20042;-84
2023/10/18 12:37:45;;;;;;;10.27;8.52;;;13.90;99.90;;;;;;5033228;28;20041;-83
2023/10/18 12:43:05;;;;;;;9.35;8.43;;;14.30;99.90;;;;;;5029562;28;20466;-84
2023/10/18 12:45:43;;;;;;;10.55;8.45;;;14.50;99.90;;;;;;5018831;28;20048;-84
2023/10/18 12:48:09;;;;;;;9.38;8.35;;;14.70;99.90;;;;;;5033782;28;20044;-83
2023/10/18 12:50:35;;;;;;;8.70;7.82;;;14.80;99.90;;;;;;5019947;28;20033;-84
2023/10/18 12:55:45;;;;;;;9.65;8.50;;;15.10;99.90;;;;;;5037951;28;20057;-84
2023/10/18 12:58:18;;;;;;;8.40;7.50;;;15.60;99.90;;;;;;5039255;28;20116;-84
2023/10/18 13:00:45;;;;;;;11.02;7.57;;;15.90;99.90;;;;;;5042908;28;20073;-84
2023/10/18 13:05:40;;;;;;;9.80;8.23;;;16.90;99.90;;;;;;5039306;28;20057;-84
2023/10/18 13:08:22;;;;;;;8.38;7.47;;;17.10;99.90;;;;;;5046927;28;20033;-83
2023/10/18 13:11:00;;;;;;;9.07;7.68;;;17.30;99.90;;;;;;5046234;28;20839;-85
2023/10/18 13:13:30;;;;;;;9.27;8.40;;;17.40;99.90;;;;;;5034023;28;20052;-84
2023/10/18 13:15:59;;;;;;;9.98;8.10;;;17.60;99.90;;;;;;5037023;28;20091;-85
2023/10/18 13:18:27;;;;;;;10.02;7.97;;;18.00;99.90;;;;;;5033829;28;20069;-86
2023/10/18 13:21:05;;;;;;;8.65;7.80;;;18.00;98.80;;;;;;5037806;28;20116;-83
2023/10/18 13:23:31;;;;;;;8.48;7.63;;;18.40;97.60;;;;;;5033908;28;20109;-85
2023/10/18 13:25:57;;;;;;;8.80;7.95;;;18.30;97.00;;;;;;5019225;28;20076;-85
2023/10/18 13:28:33;;;;;;;9.73;7.55;;;18.30;96.40;;;;;;5041633;28;20037;-84
2023/10/18 13:31:04;;;;;;;9.00;8.05;;;18.30;95.20;;;;;;5030842;28;20033;-85
2023/10/18 13:33:33;;;;;;;9.68;8.65;;;17.90;95.50;;;;;;5035124;28;20387;-84
2023/10/18 13:35:58;;;;;;;9.18;8.00;;;17.50;95.30;;;;;;5033001;28;20038;-85
2023/10/18 13:38:24;;;;;;;8.63;7.72;;;17.20;95.70;;;;;;5036769;28;20056;-84
2023/10/18 13:40:50;;;;;;;8.80;7.90;;;17.00;95.60;;;;;;5034183;28;20045;-84
2023/10/18 13:43:17;;;;;;;10.07;7.70;;;16.90;96.30;;;;;;5020826;28;20048;-85
2023/10/18 13:45:45;;;;;;;11.00;8.65;;;16.90;96.70;;;;;;5018538;28;20049;-84
2023/10/18 13:48:11;;;;;;;10.70;8.85;;;17.00;96.50;;;;;;5031595;28;20583;-84
2023/10/18 13:50:38;;;;;;;9.10;7.93;;;16.90;96.20;;;;;;5034811;28;20037;-85
2023/10/18 13:53:04;;;;;;;10.02;8.50;;;16.80;95.70;;;;;;5033974;28;20041;-84
2023/10/18 13:55:30;;;;;;;9.52;8.50;;;16.90;94.80;;;;;;5034416;28;20308;-84